sensor_id;sensor_type;location;lat;lon;timestamp;P1;durP1;ratioP1;P2;durP2;ratioP2
53052;SDS011;38934;52.690;6.184;2023-08-24T00:00:41;6.75;;;4.10;;
53052;SDS011;38934;52.690;6.184;2023-08-24T00:03:08;6.07;;;4.47;;
53052;SDS011;38934;52.690;6.184;2023-08-24T00:05:34;6.97;;;4.10;;
53052;SDS011;38934;52.690;6.184;2023-08-24T00:08:02;7.32;;;4.30;;
53052;SDS011;38934;52.690;6.184;2023-08-24T00:10:29;7.50;;;4.40;;
53052;SDS011;38934;52.690;6.184;2023-08-24T00:12:55;8.27;;;5.07;;
53052;SDS011;38934;52.690;6.184;2023-08-24T00:15:21;4.75;;;4.00;;
53052;SDS011;38934;52.690;6.184;2023-08-24T00:17:47;6.45;;;4.60;;
53052;SDS011;38934;52.690;6.184;2023-08-24T00:20:12;5.53;;;4.40;;
53052;SDS011;38934;52.690;6.184;2023-08-24T00:22:38;5.88;;;4.20;;
53052;SDS011;38934;52.690;6.184;2023-08-24T00:25:05;5.60;;;3.90;;
53052;SDS011;38934;52.690;6.184;2023-08-24T00:27:32;5.47;;;4.40;;
53052;SDS011;38934;52.690;6.184;2023-08-24T00:29:57;7.93;;;4.50;;
53052;SDS011;38934;52.690;6.184;2023-08-24T00:32:23;5.78;;;4.72;;
53052;SDS011;38934;52.690;6.184;2023-08-24T00:34:49;7.55;;;4.85;;
53052;SDS011;38934;52.690;6.184;2023-08-24T00:37:14;5.93;;;4.15;;
53052;SDS011;38934;52.690;6.184;2023-08-24T00:39:42;5.97;;;4.63;;
53052;SDS011;38934;52.690;6.184;2023-08-24T00:42:08;6.85;;;4.90;;
53052;SDS011;38934;52.690;6.184;2023-08-24T00:44:38;9.05;;;6.35;;
53052;SDS011;38934;52.690;6.184;2023-08-24T00:47:04;7.78;;;6.38;;
53052;SDS011;38934;52.690;6.184;2023-08-24T00:49:29;9.82;;;6.25;;
53052;SDS011;38934;52.690;6.184;2023-08-24T00:51:55;8.15;;;6.43;;
53052;SDS011;38934;52.690;6.184;2023-08-24T00:54:21;9.07;;;6.20;;
53052;SDS011;38934;52.690;6.184;2023-08-24T00:56:47;8.63;;;6.40;;
53052;SDS011;38934;52.690;6.184;2023-08-24T00:59:13;9.82;;;5.72;;
53052;SDS011;38934;52.690;6.184;2023-08-24T01:01:39;7.40;;;6.55;;
53052;SDS011;38934;52.690;6.184;2023-08-24T01:04:06;5.97;;;5.00;;
53052;SDS011;38934;52.690;6.184;2023-08-24T01:06:33;7.20;;;5.78;;
53052;SDS011;38934;52.690;6.184;2023-08-24T01:08:59;8.93;;;5.82;;
53052;SDS011;38934;52.690;6.184;2023-08-24T01:14:21;6.85;;;5.15;;
53052;SDS011;38934;52.690;6.184;2023-08-24T01:16:57;9.25;;;6.55;;
53052;SDS011;38934;52.690;6.184;2023-08-24T01:19:32;6.43;;;5.47;;
53052;SDS011;38934;52.690;6.184;2023-08-24T01:22:07;12.20;;;6.15;;
53052;SDS011;38934;52.690;6.184;2023-08-24T01:25:04;9.23;;;5.47;;
53052;SDS011;38934;52.690;6.184;2023-08-24T01:27:34;9.77;;;6.38;;
53052;SDS011;38934;52.690;6.184;2023-08-24T01:30:04;6.55;;;5.20;;
53052;SDS011;38934;52.690;6.184;2023-08-24T01:32:31;7.10;;;5.30;;
53052;SDS011;38934;52.690;6.184;2023-08-24T01:34:58;10.77;;;5.30;;
53052;SDS011;38934;52.690;6.184;2023-08-24T01:37:25;9.20;;;5.60;;
53052;SDS011;38934;52.690;6.184;2023-08-24T01:40:07;8.52;;;5.32;;
53052;SDS011;38934;52.690;6.184;2023-08-24T01:42:56;7.00;;;4.88;;
53052;SDS011;38934;52.690;6.184;2023-08-24T01:45:25;7.13;;;5.45;;
53052;SDS011;38934;52.690;6.184;2023-08-24T01:47:54;7.60;;;5.13;;
53052;SDS011;38934;52.690;6.184;2023-08-24T01:50:21;9.13;;;5.80;;
53052;SDS011;38934;52.690;6.184;2023-08-24T01:52:48;7.55;;;5.32;;
53052;SDS011;38934;52.690;6.184;2023-08-24T01:55:17;8.40;;;5.90;;
53052;SDS011;38934;52.690;6.184;2023-08-24T01:57:44;10.27;;;5.82;;
53052;SDS011;38934;52.690;6.184;2023-08-24T02:00:09;9.27;;;5.85;;
53052;SDS011;38934;52.690;6.184;2023-08-24T02:02:35;8.63;;;5.30;;
53052;SDS011;38934;52.690;6.184;2023-08-24T02:05:02;9.77;;;6.00;;
53052;SDS011;38934;52.690;6.184;2023-08-24T02:07:28;8.75;;;5.82;;
53052;SDS011;38934;52.690;6.184;2023-08-24T02:09:54;11.57;;;6.93;;
53052;SDS011;38934;52.690;6.184;2023-08-24T02:12:19;8.57;;;4.95;;
53052;SDS011;38934;52.690;6.184;2023-08-24T02:14:45;11.52;;;5.93;;
53052;SDS011;38934;52.690;6.184;2023-08-24T02:17:11;8.73;;;6.38;;
53052;SDS011;38934;52.690;6.184;2023-08-24T02:19:39;10.68;;;6.82;;
53052;SDS011;38934;52.690;6.184;2023-08-24T02:22:08;9.60;;;5.68;;
53052;SDS011;38934;52.690;6.184;2023-08-24T02:24:33;9.00;;;5.82;;
53052;SDS011;38934;52.690;6.184;2023-08-24T02:26:59;6.85;;;6.05;;
53052;SDS011;38934;52.690;6.184;2023-08-24T02:29:25;7.53;;;5.60;;
53052;SDS011;38934;52.690;6.184;2023-08-24T02:31:52;11.05;;;6.15;;
53052;SDS011;38934;52.690;6.184;2023-08-24T02:34:18;10.75;;;5.80;;
53052;SDS011;38934;52.690;6.184;2023-08-24T02:36:44;6.88;;;5.60;;
53052;SDS011;38934;52.690;6.184;2023-08-24T02:39:10;8.25;;;5.47;;
53052;SDS011;38934;52.690;6.184;2023-08-24T02:41:35;6.70;;;5.22;;
53052;SDS011;38934;52.690;6.184;2023-08-24T02:44:01;11.20;;;7.18;;
53052;SDS011;38934;52.690;6.184;2023-08-24T02:46:27;11.32;;;7.00;;
53052;SDS011;38934;52.690;6.184;2023-08-24T02:48:53;11.00;;;8.23;;
53052;SDS011;38934;52.690;6.184;2023-08-24T02:51:20;12.60;;;7.47;;
53052;SDS011;38934;52.690;6.184;2023-08-24T02:53:46;11.00;;;7.18;;
53052;SDS011;38934;52.690;6.184;2023-08-24T02:56:12;11.95;;;6.95;;
53052;SDS011;38934;52.690;6.184;2023-08-24T02:58:38;9.63;;;7.53;;
53052;SDS011;38934;52.690;6.184;2023-08-24T03:01:04;12.90;;;8.95;;
53052;SDS011;38934;52.690;6.184;2023-08-24T03:03:32;11.77;;;8.70;;
53052;SDS011;38934;52.690;6.184;2023-08-24T03:06:00;18.00;;;8.10;;
53052;SDS011;38934;52.690;6.184;2023-08-24T03:08:27;12.85;;;7.38;;
53052;SDS011;38934;52.690;6.184;2023-08-24T03:10:57;11.60;;;7.88;;
53052;SDS011;38934;52.690;6.184;2023-08-24T03:13:26;8.98;;;6.72;;
53052;SDS011;38934;52.690;6.184;2023-08-24T03:15:53;14.50;;;7.95;;
53052;SDS011;38934;52.690;6.184;2023-08-24T03:18:19;12.00;;;7.35;;
53052;SDS011;38934;52.690;6.184;2023-08-24T03:20:46;11.40;;;8.15;;
53052;SDS011;38934;52.690;6.184;2023-08-24T03:23:12;9.93;;;8.23;;
53052;SDS011;38934;52.690;6.184;2023-08-24T03:25:39;11.20;;;7.78;;
53052;SDS011;38934;52.690;6.184;2023-08-24T03:28:06;9.93;;;7.63;;
53052;SDS011;38934;52.690;6.184;2023-08-24T03:30:33;9.73;;;7.07;;
53052;SDS011;38934;52.690;6.184;2023-08-24T03:33:03;13.73;;;9.07;;
53052;SDS011;38934;52.690;6.184;2023-08-24T03:35:33;14.23;;;9.07;;
53052;SDS011;38934;52.690;6.184;2023-08-24T03:37:59;9.18;;;7.55;;
53052;SDS011;38934;52.690;6.184;2023-08-24T03:40:25;11.27;;;7.05;;
53052;SDS011;38934;52.690;6.184;2023-08-24T03:42:50;10.57;;;7.50;;
53052;SDS011;38934;52.690;6.184;2023-08-24T03:45:17;10.40;;;8.18;;
53052;SDS011;38934;52.690;6.184;2023-08-24T03:47:43;15.57;;;9.20;;
53052;SDS011;38934;52.690;6.184;2023-08-24T03:50:09;11.27;;;9.10;;
53052;SDS011;38934;52.690;6.184;2023-08-24T03:52:34;11.05;;;7.75;;
53052;SDS011;38934;52.690;6.184;2023-08-24T03:55:00;12.45;;;7.88;;
53052;SDS011;38934;52.690;6.184;2023-08-24T03:57:26;9.45;;;7.45;;
53052;SDS011;38934;52.690;6.184;2023-08-24T03:59:52;10.15;;;8.13;;
53052;SDS011;38934;52.690;6.184;2023-08-24T04:02:18;12.48;;;8.80;;
53052;SDS011;38934;52.690;6.184;2023-08-24T04:04:44;11.93;;;8.93;;
53052;SDS011;38934;52.690;6.184;2023-08-24T04:07:10;12.80;;;8.43;;
53052;SDS011;38934;52.690;6.184;2023-08-24T04:09:36;12.15;;;7.90;;
53052;SDS011;38934;52.690;6.184;2023-08-24T04:12:02;11.23;;;8.40;;
53052;SDS011;38934;52.690;6.184;2023-08-24T04:14:27;10.68;;;8.27;;
53052;SDS011;38934;52.690;6.184;2023-08-24T04:16:53;12.63;;;8.93;;
53052;SDS011;38934;52.690;6.184;2023-08-24T04:19:19;15.35;;;7.50;;
53052;SDS011;38934;52.690;6.184;2023-08-24T04:21:44;9.55;;;7.43;;
53052;SDS011;38934;52.690;6.184;2023-08-24T04:24:10;8.98;;;7.70;;
53052;SDS011;38934;52.690;6.184;2023-08-24T04:26:36;15.30;;;8.68;;
53052;SDS011;38934;52.690;6.184;2023-08-24T04:29:01;12.75;;;8.90;;
53052;SDS011;38934;52.690;6.184;2023-08-24T04:31:27;9.93;;;7.50;;
53052;SDS011;38934;52.690;6.184;2023-08-24T04:33:52;11.52;;;8.48;;
53052;SDS011;38934;52.690;6.184;2023-08-24T04:36:18;14.07;;;8.57;;
53052;SDS011;38934;52.690;6.184;2023-08-24T04:38:44;12.38;;;9.38;;
53052;SDS011;38934;52.690;6.184;2023-08-24T04:41:09;14.48;;;9.43;;
53052;SDS011;38934;52.690;6.184;2023-08-24T04:43:37;15.80;;;9.10;;
53052;SDS011;38934;52.690;6.184;2023-08-24T04:46:03;14.00;;;10.88;;
53052;SDS011;38934;52.690;6.184;2023-08-24T04:48:29;15.00;;;9.60;;
53052;SDS011;38934;52.690;6.184;2023-08-24T04:50:59;11.95;;;8.80;;
53052;SDS011;38934;52.690;6.184;2023-08-24T04:53:26;16.95;;;9.40;;
53052;SDS011;38934;52.690;6.184;2023-08-24T04:55:52;12.25;;;8.07;;
53052;SDS011;38934;52.690;6.184;2023-08-24T04:58:18;13.07;;;9.60;;
53052;SDS011;38934;52.690;6.184;2023-08-24T05:00:44;11.52;;;9.27;;
53052;SDS011;38934;52.690;6.184;2023-08-24T05:03:10;15.32;;;11.00;;
53052;SDS011;38934;52.690;6.184;2023-08-24T05:05:36;16.52;;;11.68;;
53052;SDS011;38934;52.690;6.184;2023-08-24T05:08:02;14.40;;;11.40;;
53052;SDS011;38934;52.690;6.184;2023-08-24T05:10:31;18.58;;;9.82;;
53052;SDS011;38934;52.690;6.184;2023-08-24T05:12:58;17.50;;;11.75;;
53052;SDS011;38934;52.690;6.184;2023-08-24T05:15:23;16.17;;;12.02;;
53052;SDS011;38934;52.690;6.184;2023-08-24T05:17:49;20.23;;;12.18;;
53052;SDS011;38934;52.690;6.184;2023-08-24T05:20:18;21.15;;;13.05;;
53052;SDS011;38934;52.690;6.184;2023-08-24T05:22:44;16.75;;;11.68;;
53052;SDS011;38934;52.690;6.184;2023-08-24T05:25:10;17.52;;;12.23;;
53052;SDS011;38934;52.690;6.184;2023-08-24T05:27:36;20.88;;;13.00;;
53052;SDS011;38934;52.690;6.184;2023-08-24T05:30:02;14.93;;;11.38;;
53052;SDS011;38934;52.690;6.184;2023-08-24T05:32:30;19.13;;;11.63;;
53052;SDS011;38934;52.690;6.184;2023-08-24T05:34:56;12.05;;;9.60;;
53052;SDS011;38934;52.690;6.184;2023-08-24T05:37:22;14.02;;;11.15;;
53052;SDS011;38934;52.690;6.184;2023-08-24T05:39:48;15.88;;;11.38;;
53052;SDS011;38934;52.690;6.184;2023-08-24T05:42:14;16.00;;;11.88;;
53052;SDS011;38934;52.690;6.184;2023-08-24T05:44:39;16.38;;;11.52;;
53052;SDS011;38934;52.690;6.184;2023-08-24T05:47:05;15.50;;;11.40;;
53052;SDS011;38934;52.690;6.184;2023-08-24T05:49:31;18.42;;;12.25;;
53052;SDS011;38934;52.690;6.184;2023-08-24T05:51:56;16.05;;;11.93;;
53052;SDS011;38934;52.690;6.184;2023-08-24T05:54:22;14.15;;;11.73;;
53052;SDS011;38934;52.690;6.184;2023-08-24T05:56:48;13.90;;;11.38;;
53052;SDS011;38934;52.690;6.184;2023-08-24T05:59:14;14.73;;;10.88;;
53052;SDS011;38934;52.690;6.184;2023-08-24T06:01:40;15.23;;;10.10;;
53052;SDS011;38934;52.690;6.184;2023-08-24T06:04:06;16.15;;;10.95;;
53052;SDS011;38934;52.690;6.184;2023-08-24T06:06:36;11.68;;;8.70;;
53052;SDS011;38934;52.690;6.184;2023-08-24T06:09:03;12.30;;;9.20;;
53052;SDS011;38934;52.690;6.184;2023-08-24T06:11:32;15.75;;;9.95;;
53052;SDS011;38934;52.690;6.184;2023-08-24T06:13:57;16.88;;;10.35;;
53052;SDS011;38934;52.690;6.184;2023-08-24T06:16:23;15.70;;;9.80;;
53052;SDS011;38934;52.690;6.184;2023-08-24T06:18:49;16.90;;;10.43;;
53052;SDS011;38934;52.690;6.184;2023-08-24T06:21:16;13.93;;;9.80;;
53052;SDS011;38934;52.690;6.184;2023-08-24T06:23:41;15.45;;;9.65;;
53052;SDS011;38934;52.690;6.184;2023-08-24T06:26:07;14.38;;;9.88;;
53052;SDS011;38934;52.690;6.184;2023-08-24T06:28:33;13.55;;;10.40;;
53052;SDS011;38934;52.690;6.184;2023-08-24T06:30:59;14.15;;;9.60;;
53052;SDS011;38934;52.690;6.184;2023-08-24T06:33:28;17.20;;;10.32;;
53052;SDS011;38934;52.690;6.184;2023-08-24T06:35:58;13.55;;;10.57;;
53052;SDS011;38934;52.690;6.184;2023-08-24T06:38:23;13.65;;;10.55;;
53052;SDS011;38934;52.690;6.184;2023-08-24T06:40:50;16.40;;;9.70;;
53052;SDS011;38934;52.690;6.184;2023-08-24T06:43:15;15.73;;;11.50;;
53052;SDS011;38934;52.690;6.184;2023-08-24T06:45:41;13.05;;;8.80;;
53052;SDS011;38934;52.690;6.184;2023-08-24T06:48:06;16.38;;;11.23;;
53052;SDS011;38934;52.690;6.184;2023-08-24T06:50:35;15.38;;;9.93;;
53052;SDS011;38934;52.690;6.184;2023-08-24T06:53:02;16.00;;;10.18;;
53052;SDS011;38934;52.690;6.184;2023-08-24T06:55:28;12.85;;;9.52;;
53052;SDS011;38934;52.690;6.184;2023-08-24T06:57:54;14.38;;;10.10;;
53052;SDS011;38934;52.690;6.184;2023-08-24T07:00:20;17.85;;;11.93;;
53052;SDS011;38934;52.690;6.184;2023-08-24T07:02:49;13.90;;;10.10;;
53052;SDS011;38934;52.690;6.184;2023-08-24T07:05:15;15.30;;;10.43;;
53052;SDS011;38934;52.690;6.184;2023-08-24T07:07:44;14.73;;;10.95;;
53052;SDS011;38934;52.690;6.184;2023-08-24T07:10:10;13.93;;;11.35;;
53052;SDS011;38934;52.690;6.184;2023-08-24T07:12:36;15.35;;;10.85;;
53052;SDS011;38934;52.690;6.184;2023-08-24T07:15:04;17.10;;;11.13;;
53052;SDS011;38934;52.690;6.184;2023-08-24T07:17:30;14.82;;;10.60;;
53052;SDS011;38934;52.690;6.184;2023-08-24T07:19:56;16.85;;;11.48;;
53052;SDS011;38934;52.690;6.184;2023-08-24T07:22:22;16.88;;;12.15;;
53052;SDS011;38934;52.690;6.184;2023-08-24T07:24:47;16.38;;;11.90;;
53052;SDS011;38934;52.690;6.184;2023-08-24T07:27:17;14.90;;;12.05;;
53052;SDS011;38934;52.690;6.184;2023-08-24T07:29:43;16.52;;;11.13;;
53052;SDS011;38934;52.690;6.184;2023-08-24T07:32:08;15.00;;;11.65;;
53052;SDS011;38934;52.690;6.184;2023-08-24T07:34:34;15.35;;;10.95;;
53052;SDS011;38934;52.690;6.184;2023-08-24T07:37:00;16.30;;;10.25;;
53052;SDS011;38934;52.690;6.184;2023-08-24T07:39:25;19.38;;;11.73;;
53052;SDS011;38934;52.690;6.184;2023-08-24T07:41:51;15.65;;;10.80;;
53052;SDS011;38934;52.690;6.184;2023-08-24T07:44:17;12.45;;;10.63;;
53052;SDS011;38934;52.690;6.184;2023-08-24T07:46:42;15.43;;;11.60;;
53052;SDS011;38934;52.690;6.184;2023-08-24T07:49:08;16.48;;;10.95;;
53052;SDS011;38934;52.690;6.184;2023-08-24T07:51:34;16.15;;;11.55;;
53052;SDS011;38934;52.690;6.184;2023-08-24T07:54:00;15.35;;;9.77;;
53052;SDS011;38934;52.690;6.184;2023-08-24T07:56:25;12.35;;;9.73;;
53052;SDS011;38934;52.690;6.184;2023-08-24T07:58:51;12.45;;;10.20;;
53052;SDS011;38934;52.690;6.184;2023-08-24T08:01:17;12.65;;;10.10;;
53052;SDS011;38934;52.690;6.184;2023-08-24T08:03:42;14.35;;;10.27;;
53052;SDS011;38934;52.690;6.184;2023-08-24T08:06:08;15.15;;;11.18;;
53052;SDS011;38934;52.690;6.184;2023-08-24T08:08:33;13.82;;;10.05;;
53052;SDS011;38934;52.690;6.184;2023-08-24T08:11:00;12.23;;;10.25;;
53052;SDS011;38934;52.690;6.184;2023-08-24T08:13:27;14.38;;;10.73;;
53052;SDS011;38934;52.690;6.184;2023-08-24T08:15:53;13.38;;;10.40;;
53052;SDS011;38934;52.690;6.184;2023-08-24T08:18:19;16.60;;;10.82;;
53052;SDS011;38934;52.690;6.184;2023-08-24T08:20:45;13.43;;;9.75;;
53052;SDS011;38934;52.690;6.184;2023-08-24T08:23:10;12.07;;;8.40;;
53052;SDS011;38934;52.690;6.184;2023-08-24T08:25:36;14.60;;;10.70;;
53052;SDS011;38934;52.690;6.184;2023-08-24T08:28:03;10.77;;;9.52;;
53052;SDS011;38934;52.690;6.184;2023-08-24T08:30:28;13.68;;;10.18;;
53052;SDS011;38934;52.690;6.184;2023-08-24T08:32:54;14.90;;;10.10;;
53052;SDS011;38934;52.690;6.184;2023-08-24T08:35:21;13.45;;;9.65;;
53052;SDS011;38934;52.690;6.184;2023-08-24T08:37:47;11.65;;;9.70;;
53052;SDS011;38934;52.690;6.184;2023-08-24T08:40:14;12.68;;;9.65;;
53052;SDS011;38934;52.690;6.184;2023-08-24T08:42:40;16.38;;;9.93;;
53052;SDS011;38934;52.690;6.184;2023-08-24T08:45:10;12.93;;;9.05;;
53052;SDS011;38934;52.690;6.184;2023-08-24T08:47:36;15.70;;;8.88;;
53052;SDS011;38934;52.690;6.184;2023-08-24T08:50:02;12.13;;;8.23;;
53052;SDS011;38934;52.690;6.184;2023-08-24T08:52:29;13.02;;;8.80;;
53052;SDS011;38934;52.690;6.184;2023-08-24T08:54:54;12.82;;;8.75;;
53052;SDS011;38934;52.690;6.184;2023-08-24T08:57:21;9.15;;;7.70;;
53052;SDS011;38934;52.690;6.184;2023-08-24T08:59:49;10.55;;;7.82;;
53052;SDS011;38934;52.690;6.184;2023-08-24T09:02:17;10.30;;;8.10;;
53052;SDS011;38934;52.690;6.184;2023-08-24T09:04:45;11.85;;;7.93;;
53052;SDS011;38934;52.690;6.184;2023-08-24T09:07:15;10.73;;;7.78;;
53052;SDS011;38934;52.690;6.184;2023-08-24T09:09:41;10.77;;;8.50;;
53052;SDS011;38934;52.690;6.184;2023-08-24T09:12:08;10.60;;;7.85;;
53052;SDS011;38934;52.690;6.184;2023-08-24T09:14:34;8.93;;;7.72;;
53052;SDS011;38934;52.690;6.184;2023-08-24T09:17:00;9.70;;;7.28;;
53052;SDS011;38934;52.690;6.184;2023-08-24T09:19:29;9.98;;;7.65;;
53052;SDS011;38934;52.690;6.184;2023-08-24T09:21:56;10.57;;;7.70;;
53052;SDS011;38934;52.690;6.184;2023-08-24T09:24:29;11.20;;;8.23;;
53052;SDS011;38934;52.690;6.184;2023-08-24T09:26:59;12.50;;;7.50;;
53052;SDS011;38934;52.690;6.184;2023-08-24T09:29:25;9.48;;;7.35;;
53052;SDS011;38934;52.690;6.184;2023-08-24T09:31:51;9.38;;;7.03;;
53052;SDS011;38934;52.690;6.184;2023-08-24T09:34:20;10.13;;;7.20;;
53052;SDS011;38934;52.690;6.184;2023-08-24T09:36:51;8.65;;;6.63;;
53052;SDS011;38934;52.690;6.184;2023-08-24T09:39:17;9.05;;;6.80;;
53052;SDS011;38934;52.690;6.184;2023-08-24T09:41:45;11.52;;;7.65;;
53052;SDS011;38934;52.690;6.184;2023-08-24T09:44:16;9.63;;;6.80;;
53052;SDS011;38934;52.690;6.184;2023-08-24T09:46:42;10.05;;;7.43;;
53052;SDS011;38934;52.690;6.184;2023-08-24T09:49:09;10.60;;;7.47;;
53052;SDS011;38934;52.690;6.184;2023-08-24T09:51:36;10.52;;;7.38;;
53052;SDS011;38934;52.690;6.184;2023-08-24T09:54:06;11.57;;;8.98;;
53052;SDS011;38934;52.690;6.184;2023-08-24T09:56:36;10.93;;;8.23;;
53052;SDS011;38934;52.690;6.184;2023-08-24T09:59:05;10.75;;;7.85;;
53052;SDS011;38934;52.690;6.184;2023-08-24T10:01:42;11.30;;;8.05;;
53052;SDS011;38934;52.690;6.184;2023-08-24T10:04:13;11.60;;;8.77;;
53052;SDS011;38934;52.690;6.184;2023-08-24T10:06:40;12.10;;;8.60;;
53052;SDS011;38934;52.690;6.184;2023-08-24T10:09:08;11.32;;;9.25;;
53052;SDS011;38934;52.690;6.184;2023-08-24T10:11:42;14.20;;;8.23;;
53052;SDS011;38934;52.690;6.184;2023-08-24T10:14:27;11.73;;;8.32;;
53052;SDS011;38934;52.690;6.184;2023-08-24T10:16:59;11.82;;;9.13;;
53052;SDS011;38934;52.690;6.184;2023-08-24T10:19:25;15.15;;;8.73;;
53052;SDS011;38934;52.690;6.184;2023-08-24T10:21:53;12.13;;;8.55;;
53052;SDS011;38934;52.690;6.184;2023-08-24T10:24:22;12.80;;;8.27;;
53052;SDS011;38934;52.690;6.184;2023-08-24T10:26:48;11.70;;;8.50;;
53052;SDS011;38934;52.690;6.184;2023-08-24T10:29:14;10.25;;;7.88;;
53052;SDS011;38934;52.690;6.184;2023-08-24T10:31:41;14.95;;;8.15;;
53052;SDS011;38934;52.690;6.184;2023-08-24T10:34:08;13.15;;;8.02;;
53052;SDS011;38934;52.690;6.184;2023-08-24T10:36:34;10.73;;;7.75;;
53052;SDS011;38934;52.690;6.184;2023-08-24T10:39:03;10.00;;;7.60;;
53052;SDS011;38934;52.690;6.184;2023-08-24T10:44:20;9.60;;;7.40;;
53052;SDS011;38934;52.690;6.184;2023-08-24T10:49:31;10.80;;;7.80;;
53052;SDS011;38934;52.690;6.184;2023-08-24T10:51:57;9.45;;;7.78;;
53052;SDS011;38934;52.690;6.184;2023-08-24T10:54:44;9.85;;;7.72;;
53052;SDS011;38934;52.690;6.184;2023-08-24T10:59:57;10.88;;;7.82;;
53052;SDS011;38934;52.690;6.184;2023-08-24T11:07:55;13.35;;;8.90;;
53052;SDS011;38934;52.690;6.184;2023-08-24T11:10:51;13.45;;;9.05;;
53052;SDS011;38934;52.690;6.184;2023-08-24T11:13:19;11.68;;;9.00;;
53052;SDS011;38934;52.690;6.184;2023-08-24T11:15:48;11.15;;;9.25;;
53052;SDS011;38934;52.690;6.184;2023-08-24T11:18:26;10.25;;;8.55;;
53052;SDS011;38934;52.690;6.184;2023-08-24T11:21:11;14.02;;;9.68;;
53052;SDS011;38934;52.690;6.184;2023-08-24T11:23:37;11.35;;;8.05;;
53052;SDS011;38934;52.690;6.184;2023-08-24T11:26:03;16.85;;;9.35;;
53052;SDS011;38934;52.690;6.184;2023-08-24T11:28:29;13.63;;;8.98;;
53052;SDS011;38934;52.690;6.184;2023-08-24T11:30:56;11.52;;;9.45;;
53052;SDS011;38934;52.690;6.184;2023-08-24T11:33:32;15.15;;;10.63;;
53052;SDS011;38934;52.690;6.184;2023-08-24T11:35:59;12.95;;;9.80;;
53052;SDS011;38934;52.690;6.184;2023-08-24T11:41:10;16.83;;;9.95;;
53052;SDS011;38934;52.690;6.184;2023-08-24T11:43:39;11.20;;;9.20;;
53052;SDS011;38934;52.690;6.184;2023-08-24T11:46:05;10.23;;;8.30;;
53052;SDS011;38934;52.690;6.184;2023-08-24T11:48:31;11.63;;;8.00;;
53052;SDS011;38934;52.690;6.184;2023-08-24T11:50:57;12.00;;;9.77;;
53052;SDS011;38934;52.690;6.184;2023-08-24T11:53:23;12.65;;;10.02;;
53052;SDS011;38934;52.690;6.184;2023-08-24T11:55:52;15.65;;;10.15;;
53052;SDS011;38934;52.690;6.184;2023-08-24T11:58:18;12.93;;;9.98;;
53052;SDS011;38934;52.690;6.184;2023-08-24T12:00:44;13.35;;;10.18;;
53052;SDS011;38934;52.690;6.184;2023-08-24T12:03:11;13.85;;;10.15;;
53052;SDS011;38934;52.690;6.184;2023-08-24T12:05:37;16.35;;;11.70;;
53052;SDS011;38934;52.690;6.184;2023-08-24T12:08:03;13.68;;;11.27;;
53052;SDS011;38934;52.690;6.184;2023-08-24T12:10:28;12.82;;;10.60;;
53052;SDS011;38934;52.690;6.184;2023-08-24T12:13:03;13.98;;;10.90;;
53052;SDS011;38934;52.690;6.184;2023-08-24T12:15:30;11.93;;;9.57;;
53052;SDS011;38934;52.690;6.184;2023-08-24T12:18:04;13.07;;;10.55;;
53052;SDS011;38934;52.690;6.184;2023-08-24T12:20:32;11.60;;;9.98;;
53052;SDS011;38934;52.690;6.184;2023-08-24T12:22:58;13.05;;;10.55;;
53052;SDS011;38934;52.690;6.184;2023-08-24T12:25:24;12.48;;;9.60;;
53052;SDS011;38934;52.690;6.184;2023-08-24T12:27:54;12.88;;;10.13;;
53052;SDS011;38934;52.690;6.184;2023-08-24T12:30:49;11.68;;;9.43;;
53052;SDS011;38934;52.690;6.184;2023-08-24T12:33:29;12.35;;;9.88;;
53052;SDS011;38934;52.690;6.184;2023-08-24T12:35:59;11.70;;;10.25;;
53052;SDS011;38934;52.690;6.184;2023-08-24T12:38:27;11.98;;;10.20;;
53052;SDS011;38934;52.690;6.184;2023-08-24T12:40:52;11.60;;;9.20;;
53052;SDS011;38934;52.690;6.184;2023-08-24T12:43:18;12.48;;;10.07;;
53052;SDS011;38934;52.690;6.184;2023-08-24T12:45:44;11.85;;;10.45;;
53052;SDS011;38934;52.690;6.184;2023-08-24T12:48:10;13.65;;;10.20;;
53052;SDS011;38934;52.690;6.184;2023-08-24T12:50:37;11.60;;;10.07;;
53052;SDS011;38934;52.690;6.184;2023-08-24T12:53:03;13.60;;;10.10;;
53052;SDS011;38934;52.690;6.184;2023-08-24T12:55:31;12.23;;;10.20;;
53052;SDS011;38934;52.690;6.184;2023-08-24T12:57:57;12.00;;;9.85;;
53052;SDS011;38934;52.690;6.184;2023-08-24T13:00:23;15.00;;;10.02;;
53052;SDS011;38934;52.690;6.184;2023-08-24T13:02:49;14.27;;;10.02;;
53052;SDS011;38934;52.690;6.184;2023-08-24T13:05:15;11.20;;;9.60;;
53052;SDS011;38934;52.690;6.184;2023-08-24T13:07:41;11.82;;;9.48;;
53052;SDS011;38934;52.690;6.184;2023-08-24T13:10:07;13.70;;;10.48;;
53052;SDS011;38934;52.690;6.184;2023-08-24T13:12:33;11.55;;;9.55;;
53052;SDS011;38934;52.690;6.184;2023-08-24T13:15:00;11.80;;;9.30;;
53052;SDS011;38934;52.690;6.184;2023-08-24T13:17:26;13.43;;;10.38;;
53052;SDS011;38934;52.690;6.184;2023-08-24T13:19:52;12.80;;;11.50;;
53052;SDS011;38934;52.690;6.184;2023-08-24T13:22:18;12.60;;;11.27;;
53052;SDS011;38934;52.690;6.184;2023-08-24T13:24:43;17.02;;;11.80;;
53052;SDS011;38934;52.690;6.184;2023-08-24T13:27:10;13.88;;;12.18;;
53052;SDS011;38934;52.690;6.184;2023-08-24T13:29:36;16.70;;;12.73;;
53052;SDS011;38934;52.690;6.184;2023-08-24T13:32:02;15.40;;;13.07;;
53052;SDS011;38934;52.690;6.184;2023-08-24T13:34:28;13.68;;;12.27;;
53052;SDS011;38934;52.690;6.184;2023-08-24T13:36:54;15.60;;;13.23;;
53052;SDS011;38934;52.690;6.184;2023-08-24T13:39:19;15.25;;;12.52;;
53052;SDS011;38934;52.690;6.184;2023-08-24T13:41:45;16.10;;;13.50;;
53052;SDS011;38934;52.690;6.184;2023-08-24T13:44:10;17.40;;;14.73;;
53052;SDS011;38934;52.690;6.184;2023-08-24T13:46:36;17.70;;;14.57;;
53052;SDS011;38934;52.690;6.184;2023-08-24T13:49:02;19.23;;;14.05;;
53052;SDS011;38934;52.690;6.184;2023-08-24T13:51:27;15.43;;;13.82;;
53052;SDS011;38934;52.690;6.184;2023-08-24T13:53:53;17.25;;;13.88;;
53052;SDS011;38934;52.690;6.184;2023-08-24T13:56:19;15.43;;;13.82;;
53052;SDS011;38934;52.690;6.184;2023-08-24T13:58:45;15.80;;;14.15;;
53052;SDS011;38934;52.690;6.184;2023-08-24T14:01:11;15.32;;;13.73;;
53052;SDS011;38934;52.690;6.184;2023-08-24T14:03:38;16.33;;;13.27;;
53052;SDS011;38934;52.690;6.184;2023-08-24T14:06:05;16.52;;;13.45;;
53052;SDS011;38934;52.690;6.184;2023-08-24T14:08:31;19.42;;;14.73;;
53052;SDS011;38934;52.690;6.184;2023-08-24T14:10:56;16.38;;;13.10;;
53052;SDS011;38934;52.690;6.184;2023-08-24T14:13:22;16.33;;;13.63;;
53052;SDS011;38934;52.690;6.184;2023-08-24T14:15:50;17.23;;;14.02;;
53052;SDS011;38934;52.690;6.184;2023-08-24T14:18:15;15.80;;;13.48;;
53052;SDS011;38934;52.690;6.184;2023-08-24T14:20:42;16.60;;;14.90;;
53052;SDS011;38934;52.690;6.184;2023-08-24T14:23:08;17.48;;;14.93;;
53052;SDS011;38934;52.690;6.184;2023-08-24T14:25:34;15.55;;;13.93;;
53052;SDS011;38934;52.690;6.184;2023-08-24T14:28:00;16.88;;;15.07;;
53052;SDS011;38934;52.690;6.184;2023-08-24T14:30:25;19.85;;;15.20;;
53052;SDS011;38934;52.690;6.184;2023-08-24T14:32:51;17.20;;;14.70;;
53052;SDS011;38934;52.690;6.184;2023-08-24T14:35:17;18.73;;;15.40;;
53052;SDS011;38934;52.690;6.184;2023-08-24T14:37:43;15.57;;;13.57;;
53052;SDS011;38934;52.690;6.184;2023-08-24T14:40:08;18.30;;;15.48;;
53052;SDS011;38934;52.690;6.184;2023-08-24T14:42:35;18.13;;;14.10;;
53052;SDS011;38934;52.690;6.184;2023-08-24T14:45:00;20.30;;;15.05;;
53052;SDS011;38934;52.690;6.184;2023-08-24T14:47:26;15.88;;;14.27;;
53052;SDS011;38934;52.690;6.184;2023-08-24T14:49:52;18.58;;;14.40;;
53052;SDS011;38934;52.690;6.184;2023-08-24T14:52:17;17.27;;;14.40;;